Terminal Aerodrome Forecast
Issued by NWS Jackson, MS

Home | Current Version | Previous Version | Text Only | Print | Product List | Glossary On
Versions: 1 2 3 4 5 6 7 8 9 10 11 12 13
000
FTUS44 KJAN 270545
TAFMEI
TAF
KMEI 270545Z 2706/2806 18007KT P6SM BKN012
     FM270700 18005KT 5SM BR BKN008
     FM271000 18005KT 2SM BR BKN003
     FM271200 19005KT 4SM BR BKN003
     FM271400 19007KT P6SM BKN008
     FM271500 20010KT P6SM OVC015
     FM271600 20013G19KT P6SM SCT040
     FM272200 20011KT P6SM VCTS BKN050CB=

USA.gov is the U.S. government's official web portal to all federal, state and local government web resources and services.